sensor_id;sensor_type;location;lat;lon;timestamp;P1;durP1;ratioP1;P2;durP2;ratioP2
75272;SDS011;63869;52.344;16.928;2023-12-20T00:01:45;11.88;;;7.55;;
75272;SDS011;63869;52.344;16.928;2023-12-20T00:04:10;14.15;;;8.48;;
75272;SDS011;63869;52.344;16.928;2023-12-20T00:06:36;13.90;;;7.75;;
75272;SDS011;63869;52.344;16.928;2023-12-20T00:09:01;12.75;;;7.30;;
75272;SDS011;63869;52.344;16.928;2023-12-20T00:11:27;12.05;;;7.55;;
75272;SDS011;63869;52.344;16.928;2023-12-20T00:13:52;11.18;;;6.95;;
75272;SDS011;63869;52.344;16.928;2023-12-20T00:16:18;12.25;;;7.43;;
75272;SDS011;63869;52.344;16.928;2023-12-20T00:18:43;12.80;;;7.75;;
75272;SDS011;63869;52.344;16.928;2023-12-20T00:21:09;12.95;;;7.65;;
75272;SDS011;63869;52.344;16.928;2023-12-20T00:23:34;13.60;;;7.25;;
75272;SDS011;63869;52.344;16.928;2023-12-20T00:26:00;11.90;;;7.03;;
75272;SDS011;63869;52.344;16.928;2023-12-20T00:28:25;11.55;;;6.70;;
75272;SDS011;63869;52.344;16.928;2023-12-20T00:30:51;12.63;;;7.25;;
75272;SDS011;63869;52.344;16.928;2023-12-20T00:33:16;13.20;;;7.63;;
75272;SDS011;63869;52.344;16.928;2023-12-20T00:35:41;12.45;;;7.05;;
75272;SDS011;63869;52.344;16.928;2023-12-20T00:38:08;11.98;;;7.45;;
75272;SDS011;63869;52.344;16.928;2023-12-20T00:40:34;9.68;;;6.28;;
75272;SDS011;63869;52.344;16.928;2023-12-20T00:43:00;10.23;;;6.72;;
75272;SDS011;63869;52.344;16.928;2023-12-20T00:45:26;12.55;;;7.70;;
75272;SDS011;63869;52.344;16.928;2023-12-20T00:47:52;11.63;;;7.20;;
75272;SDS011;63869;52.344;16.928;2023-12-20T00:50:17;11.07;;;6.63;;
75272;SDS011;63869;52.344;16.928;2023-12-20T00:52:44;10.70;;;6.90;;
75272;SDS011;63869;52.344;16.928;2023-12-20T00:55:11;11.75;;;6.75;;
75272;SDS011;63869;52.344;16.928;2023-12-20T00:57:36;12.00;;;6.72;;
75272;SDS011;63869;52.344;16.928;2023-12-20T01:00:02;9.80;;;6.10;;
75272;SDS011;63869;52.344;16.928;2023-12-20T01:02:27;11.02;;;6.30;;
75272;SDS011;63869;52.344;16.928;2023-12-20T01:04:53;9.48;;;5.80;;
75272;SDS011;63869;52.344;16.928;2023-12-20T01:07:20;9.85;;;5.65;;
75272;SDS011;63869;52.344;16.928;2023-12-20T01:09:45;9.70;;;5.80;;
75272;SDS011;63869;52.344;16.928;2023-12-20T01:12:12;9.27;;;5.70;;
75272;SDS011;63869;52.344;16.928;2023-12-20T01:14:37;7.32;;;5.00;;
75272;SDS011;63869;52.344;16.928;2023-12-20T01:17:04;7.70;;;5.15;;
75272;SDS011;63869;52.344;16.928;2023-12-20T01:19:30;6.97;;;4.88;;
75272;SDS011;63869;52.344;16.928;2023-12-20T01:21:55;6.93;;;5.00;;
75272;SDS011;63869;52.344;16.928;2023-12-20T01:24:21;7.38;;;4.72;;
75272;SDS011;63869;52.344;16.928;2023-12-20T01:26:46;7.50;;;4.55;;
75272;SDS011;63869;52.344;16.928;2023-12-20T01:29:12;7.32;;;4.50;;
75272;SDS011;63869;52.344;16.928;2023-12-20T01:31:39;7.03;;;4.38;;
75272;SDS011;63869;52.344;16.928;2023-12-20T01:34:05;7.80;;;4.70;;
75272;SDS011;63869;52.344;16.928;2023-12-20T01:36:31;8.35;;;4.80;;
75272;SDS011;63869;52.344;16.928;2023-12-20T01:38:56;7.20;;;4.25;;
75272;SDS011;63869;52.344;16.928;2023-12-20T01:41:21;5.93;;;3.97;;
75272;SDS011;63869;52.344;16.928;2023-12-20T01:43:47;7.32;;;4.65;;
75272;SDS011;63869;52.344;16.928;2023-12-20T01:46:12;6.97;;;4.47;;
75272;SDS011;63869;52.344;16.928;2023-12-20T01:48:38;6.03;;;4.05;;
75272;SDS011;63869;52.344;16.928;2023-12-20T01:51:04;6.88;;;4.38;;
75272;SDS011;63869;52.344;16.928;2023-12-20T01:53:29;6.60;;;4.10;;
75272;SDS011;63869;52.344;16.928;2023-12-20T01:55:55;6.70;;;4.05;;
75272;SDS011;63869;52.344;16.928;2023-12-20T01:58:23;6.38;;;4.35;;
75272;SDS011;63869;52.344;16.928;2023-12-20T02:00:48;7.47;;;4.22;;
75272;SDS011;63869;52.344;16.928;2023-12-20T02:03:14;6.60;;;4.28;;
75272;SDS011;63869;52.344;16.928;2023-12-20T02:05:41;7.30;;;4.82;;
75272;SDS011;63869;52.344;16.928;2023-12-20T02:08:07;7.35;;;4.65;;
75272;SDS011;63869;52.344;16.928;2023-12-20T02:10:32;9.02;;;4.32;;
75272;SDS011;63869;52.344;16.928;2023-12-20T02:12:58;7.38;;;4.68;;
75272;SDS011;63869;52.344;16.928;2023-12-20T02:15:23;6.53;;;4.65;;
75272;SDS011;63869;52.344;16.928;2023-12-20T02:17:49;8.07;;;4.82;;
75272;SDS011;63869;52.344;16.928;2023-12-20T02:20:15;7.88;;;4.32;;
75272;SDS011;63869;52.344;16.928;2023-12-20T02:22:40;7.20;;;4.50;;
75272;SDS011;63869;52.344;16.928;2023-12-20T02:25:06;7.30;;;4.50;;
75272;SDS011;63869;52.344;16.928;2023-12-20T02:27:31;7.80;;;4.65;;
75272;SDS011;63869;52.344;16.928;2023-12-20T02:29:56;8.93;;;5.05;;
75272;SDS011;63869;52.344;16.928;2023-12-20T02:32:22;7.15;;;4.60;;
75272;SDS011;63869;52.344;16.928;2023-12-20T02:34:51;7.57;;;4.90;;
75272;SDS011;63869;52.344;16.928;2023-12-20T02:37:16;8.45;;;5.18;;
75272;SDS011;63869;52.344;16.928;2023-12-20T02:39:42;8.50;;;5.40;;
75272;SDS011;63869;52.344;16.928;2023-12-20T02:42:07;9.35;;;5.88;;
75272;SDS011;63869;52.344;16.928;2023-12-20T02:44:32;8.82;;;5.60;;
75272;SDS011;63869;52.344;16.928;2023-12-20T02:46:58;8.40;;;5.05;;
75272;SDS011;63869;52.344;16.928;2023-12-20T02:49:23;8.18;;;4.97;;
75272;SDS011;63869;52.344;16.928;2023-12-20T02:51:49;7.60;;;4.97;;
75272;SDS011;63869;52.344;16.928;2023-12-20T02:54:14;9.18;;;5.18;;
75272;SDS011;63869;52.344;16.928;2023-12-20T02:56:40;7.15;;;4.90;;
75272;SDS011;63869;52.344;16.928;2023-12-20T02:59:05;7.68;;;4.93;;
75272;SDS011;63869;52.344;16.928;2023-12-20T03:01:31;8.07;;;4.75;;
75272;SDS011;63869;52.344;16.928;2023-12-20T03:03:57;9.40;;;4.93;;
75272;SDS011;63869;52.344;16.928;2023-12-20T03:06:22;7.30;;;4.75;;
75272;SDS011;63869;52.344;16.928;2023-12-20T03:08:48;8.93;;;5.00;;
75272;SDS011;63869;52.344;16.928;2023-12-20T03:11:13;7.47;;;4.85;;
75272;SDS011;63869;52.344;16.928;2023-12-20T03:13:39;8.95;;;5.05;;
75272;SDS011;63869;52.344;16.928;2023-12-20T03:16:08;8.40;;;5.13;;
75272;SDS011;63869;52.344;16.928;2023-12-20T03:18:37;7.80;;;4.90;;
75272;SDS011;63869;52.344;16.928;2023-12-20T03:21:02;8.18;;;5.35;;
75272;SDS011;63869;52.344;16.928;2023-12-20T03:23:29;8.25;;;5.07;;
75272;SDS011;63869;52.344;16.928;2023-12-20T03:25:55;8.18;;;5.03;;
75272;SDS011;63869;52.344;16.928;2023-12-20T03:28:21;7.53;;;4.65;;
75272;SDS011;63869;52.344;16.928;2023-12-20T03:30:48;7.38;;;5.00;;
75272;SDS011;63869;52.344;16.928;2023-12-20T03:33:13;8.43;;;5.18;;
75272;SDS011;63869;52.344;16.928;2023-12-20T03:35:39;8.25;;;5.00;;
75272;SDS011;63869;52.344;16.928;2023-12-20T03:38:04;9.27;;;4.82;;
75272;SDS011;63869;52.344;16.928;2023-12-20T03:40:30;8.20;;;5.07;;
75272;SDS011;63869;52.344;16.928;2023-12-20T03:42:55;7.20;;;4.63;;
75272;SDS011;63869;52.344;16.928;2023-12-20T03:45:20;8.20;;;4.68;;
75272;SDS011;63869;52.344;16.928;2023-12-20T03:47:46;7.78;;;4.82;;
75272;SDS011;63869;52.344;16.928;2023-12-20T03:50:12;8.48;;;5.03;;
75272;SDS011;63869;52.344;16.928;2023-12-20T03:52:37;8.00;;;4.85;;
75272;SDS011;63869;52.344;16.928;2023-12-20T03:55:03;7.45;;;4.60;;
75272;SDS011;63869;52.344;16.928;2023-12-20T03:57:29;7.72;;;4.55;;
75272;SDS011;63869;52.344;16.928;2023-12-20T03:59:54;7.43;;;4.80;;
75272;SDS011;63869;52.344;16.928;2023-12-20T04:02:19;7.85;;;4.68;;
75272;SDS011;63869;52.344;16.928;2023-12-20T04:04:45;8.13;;;4.88;;
75272;SDS011;63869;52.344;16.928;2023-12-20T04:07:10;7.45;;;4.40;;
75272;SDS011;63869;52.344;16.928;2023-12-20T04:09:36;7.28;;;4.32;;
75272;SDS011;63869;52.344;16.928;2023-12-20T04:12:03;6.70;;;4.30;;
75272;SDS011;63869;52.344;16.928;2023-12-20T04:14:28;6.95;;;4.38;;
75272;SDS011;63869;52.344;16.928;2023-12-20T04:16:54;6.43;;;4.13;;
75272;SDS011;63869;52.344;16.928;2023-12-20T04:19:19;7.05;;;4.22;;
75272;SDS011;63869;52.344;16.928;2023-12-20T04:21:44;7.63;;;4.97;;
75272;SDS011;63869;52.344;16.928;2023-12-20T04:24:10;8.70;;;4.78;;
75272;SDS011;63869;52.344;16.928;2023-12-20T04:26:35;7.30;;;4.93;;
75272;SDS011;63869;52.344;16.928;2023-12-20T04:29:01;8.73;;;4.53;;
75272;SDS011;63869;52.344;16.928;2023-12-20T04:31:27;8.27;;;4.63;;
75272;SDS011;63869;52.344;16.928;2023-12-20T04:33:53;8.77;;;4.75;;
75272;SDS011;63869;52.344;16.928;2023-12-20T04:36:18;8.25;;;4.88;;
75272;SDS011;63869;52.344;16.928;2023-12-20T04:38:43;8.75;;;4.60;;
75272;SDS011;63869;52.344;16.928;2023-12-20T04:41:09;8.10;;;4.72;;
75272;SDS011;63869;52.344;16.928;2023-12-20T04:43:34;8.43;;;4.55;;
75272;SDS011;63869;52.344;16.928;2023-12-20T04:46:00;8.20;;;4.32;;
75272;SDS011;63869;52.344;16.928;2023-12-20T04:48:25;7.85;;;4.70;;
75272;SDS011;63869;52.344;16.928;2023-12-20T04:50:50;7.10;;;4.30;;
75272;SDS011;63869;52.344;16.928;2023-12-20T04:53:16;8.02;;;4.60;;
75272;SDS011;63869;52.344;16.928;2023-12-20T04:55:41;8.02;;;4.75;;
75272;SDS011;63869;52.344;16.928;2023-12-20T04:58:07;7.45;;;4.50;;
75272;SDS011;63869;52.344;16.928;2023-12-20T05:00:32;7.53;;;4.75;;
75272;SDS011;63869;52.344;16.928;2023-12-20T05:02:58;7.50;;;4.15;;
75272;SDS011;63869;52.344;16.928;2023-12-20T05:05:23;6.45;;;3.95;;
75272;SDS011;63869;52.344;16.928;2023-12-20T05:07:49;8.10;;;4.57;;
75272;SDS011;63869;52.344;16.928;2023-12-20T05:10:14;6.45;;;4.35;;
75272;SDS011;63869;52.344;16.928;2023-12-20T05:12:40;7.50;;;4.53;;
75272;SDS011;63869;52.344;16.928;2023-12-20T05:15:05;8.00;;;4.53;;
75272;SDS011;63869;52.344;16.928;2023-12-20T05:17:31;7.90;;;4.45;;
75272;SDS011;63869;52.344;16.928;2023-12-20T05:19:57;8.93;;;4.90;;
75272;SDS011;63869;52.344;16.928;2023-12-20T05:22:22;7.60;;;4.38;;
75272;SDS011;63869;52.344;16.928;2023-12-20T05:24:47;7.53;;;4.40;;
75272;SDS011;63869;52.344;16.928;2023-12-20T05:27:13;7.55;;;4.55;;
75272;SDS011;63869;52.344;16.928;2023-12-20T05:29:38;7.28;;;4.32;;
75272;SDS011;63869;52.344;16.928;2023-12-20T05:32:04;8.48;;;4.85;;
75272;SDS011;63869;52.344;16.928;2023-12-20T05:34:30;7.15;;;4.30;;
75272;SDS011;63869;52.344;16.928;2023-12-20T05:36:57;8.05;;;4.53;;
75272;SDS011;63869;52.344;16.928;2023-12-20T05:39:23;7.25;;;4.25;;
75272;SDS011;63869;52.344;16.928;2023-12-20T05:41:48;9.43;;;4.32;;
75272;SDS011;63869;52.344;16.928;2023-12-20T05:44:13;8.10;;;4.47;;
75272;SDS011;63869;52.344;16.928;2023-12-20T05:46:39;7.70;;;4.47;;
75272;SDS011;63869;52.344;16.928;2023-12-20T05:49:05;10.32;;;4.55;;
75272;SDS011;63869;52.344;16.928;2023-12-20T05:51:31;6.93;;;4.28;;
75272;SDS011;63869;52.344;16.928;2023-12-20T05:53:56;9.48;;;4.63;;
75272;SDS011;63869;52.344;16.928;2023-12-20T05:56:22;8.25;;;4.60;;
75272;SDS011;63869;52.344;16.928;2023-12-20T05:58:48;9.68;;;4.80;;
75272;SDS011;63869;52.344;16.928;2023-12-20T06:01:14;9.23;;;5.25;;
75272;SDS011;63869;52.344;16.928;2023-12-20T06:03:42;11.85;;;5.60;;
75272;SDS011;63869;52.344;16.928;2023-12-20T06:06:08;8.77;;;5.43;;
75272;SDS011;63869;52.344;16.928;2023-12-20T06:08:33;9.27;;;5.50;;
75272;SDS011;63869;52.344;16.928;2023-12-20T06:10:59;9.57;;;5.65;;
75272;SDS011;63869;52.344;16.928;2023-12-20T06:13:25;12.07;;;6.47;;
75272;SDS011;63869;52.344;16.928;2023-12-20T06:15:51;9.85;;;5.18;;
75272;SDS011;63869;52.344;16.928;2023-12-20T06:18:17;8.65;;;5.00;;
75272;SDS011;63869;52.344;16.928;2023-12-20T06:20:42;8.60;;;4.47;;
75272;SDS011;63869;52.344;16.928;2023-12-20T06:23:07;6.70;;;4.70;;
75272;SDS011;63869;52.344;16.928;2023-12-20T06:25:33;7.07;;;4.32;;
75272;SDS011;63869;52.344;16.928;2023-12-20T06:27:58;8.00;;;4.53;;
75272;SDS011;63869;52.344;16.928;2023-12-20T06:30:24;7.82;;;4.55;;
75272;SDS011;63869;52.344;16.928;2023-12-20T06:32:51;8.20;;;4.75;;
75272;SDS011;63869;52.344;16.928;2023-12-20T06:35:17;7.70;;;4.65;;
75272;SDS011;63869;52.344;16.928;2023-12-20T06:37:43;9.10;;;5.35;;
75272;SDS011;63869;52.344;16.928;2023-12-20T06:40:11;7.53;;;4.85;;
75272;SDS011;63869;52.344;16.928;2023-12-20T06:42:37;9.63;;;5.63;;
75272;SDS011;63869;52.344;16.928;2023-12-20T06:45:02;10.02;;;5.50;;
75272;SDS011;63869;52.344;16.928;2023-12-20T06:47:28;11.65;;;5.78;;
75272;SDS011;63869;52.344;16.928;2023-12-20T06:49:54;9.15;;;5.28;;
75272;SDS011;63869;52.344;16.928;2023-12-20T06:52:19;11.10;;;5.75;;
75272;SDS011;63869;52.344;16.928;2023-12-20T06:54:45;9.82;;;5.45;;
75272;SDS011;63869;52.344;16.928;2023-12-20T06:57:10;9.32;;;5.40;;
75272;SDS011;63869;52.344;16.928;2023-12-20T06:59:39;9.75;;;5.22;;
75272;SDS011;63869;52.344;16.928;2023-12-20T07:02:06;9.90;;;5.10;;
75272;SDS011;63869;52.344;16.928;2023-12-20T07:04:33;9.40;;;5.05;;
75272;SDS011;63869;52.344;16.928;2023-12-20T07:06:58;11.68;;;5.35;;
75272;SDS011;63869;52.344;16.928;2023-12-20T07:09:25;9.82;;;5.05;;
75272;SDS011;63869;52.344;16.928;2023-12-20T07:11:51;10.68;;;5.28;;
75272;SDS011;63869;52.344;16.928;2023-12-20T07:14:17;9.30;;;4.75;;
75272;SDS011;63869;52.344;16.928;2023-12-20T07:16:42;9.68;;;5.50;;
75272;SDS011;63869;52.344;16.928;2023-12-20T07:19:09;9.82;;;5.70;;
75272;SDS011;63869;52.344;16.928;2023-12-20T07:21:35;11.90;;;6.65;;
75272;SDS011;63869;52.344;16.928;2023-12-20T07:24:00;11.35;;;5.88;;
75272;SDS011;63869;52.344;16.928;2023-12-20T07:26:26;13.00;;;6.85;;
75272;SDS011;63869;52.344;16.928;2023-12-20T07:28:52;10.55;;;6.07;;
75272;SDS011;63869;52.344;16.928;2023-12-20T07:31:17;12.65;;;5.85;;
75272;SDS011;63869;52.344;16.928;2023-12-20T07:33:43;10.00;;;5.82;;
75272;SDS011;63869;52.344;16.928;2023-12-20T07:36:09;11.57;;;6.38;;
75272;SDS011;63869;52.344;16.928;2023-12-20T07:38:35;11.57;;;6.55;;
75272;SDS011;63869;52.344;16.928;2023-12-20T07:41:00;16.42;;;7.32;;
75272;SDS011;63869;52.344;16.928;2023-12-20T07:43:26;13.30;;;6.43;;
75272;SDS011;63869;52.344;16.928;2023-12-20T07:45:51;11.02;;;6.32;;
75272;SDS011;63869;52.344;16.928;2023-12-20T07:48:17;11.50;;;5.88;;
75272;SDS011;63869;52.344;16.928;2023-12-20T07:50:42;11.60;;;5.93;;
75272;SDS011;63869;52.344;16.928;2023-12-20T07:53:08;12.93;;;5.95;;
75272;SDS011;63869;52.344;16.928;2023-12-20T07:55:33;10.65;;;6.30;;
75272;SDS011;63869;52.344;16.928;2023-12-20T07:57:59;13.02;;;6.80;;
75272;SDS011;63869;52.344;16.928;2023-12-20T08:00:25;10.90;;;5.80;;
75272;SDS011;63869;52.344;16.928;2023-12-20T08:02:50;12.73;;;6.18;;
75272;SDS011;63869;52.344;16.928;2023-12-20T08:05:17;11.57;;;6.38;;
75272;SDS011;63869;52.344;16.928;2023-12-20T08:07:44;11.93;;;6.18;;
75272;SDS011;63869;52.344;16.928;2023-12-20T08:10:10;10.88;;;6.30;;
75272;SDS011;63869;52.344;16.928;2023-12-20T08:12:36;10.48;;;6.20;;
75272;SDS011;63869;52.344;16.928;2023-12-20T08:15:01;15.10;;;6.63;;
75272;SDS011;63869;52.344;16.928;2023-12-20T08:17:28;8.63;;;5.38;;
75272;SDS011;63869;52.344;16.928;2023-12-20T08:19:54;8.98;;;5.32;;
75272;SDS011;63869;52.344;16.928;2023-12-20T08:22:19;11.65;;;5.55;;
75272;SDS011;63869;52.344;16.928;2023-12-20T08:24:45;10.38;;;5.30;;
75272;SDS011;63869;52.344;16.928;2023-12-20T08:27:11;10.15;;;5.20;;
75272;SDS011;63869;52.344;16.928;2023-12-20T08:29:37;8.93;;;5.07;;
75272;SDS011;63869;52.344;16.928;2023-12-20T08:32:03;9.52;;;5.90;;
75272;SDS011;63869;52.344;16.928;2023-12-20T08:34:28;13.13;;;6.07;;
75272;SDS011;63869;52.344;16.928;2023-12-20T08:36:54;10.80;;;5.72;;
75272;SDS011;63869;52.344;16.928;2023-12-20T08:39:19;10.13;;;5.45;;
75272;SDS011;63869;52.344;16.928;2023-12-20T08:41:45;12.05;;;6.10;;
75272;SDS011;63869;52.344;16.928;2023-12-20T08:44:10;14.27;;;6.03;;
75272;SDS011;63869;52.344;16.928;2023-12-20T08:46:36;12.65;;;5.93;;
75272;SDS011;63869;52.344;16.928;2023-12-20T08:49:02;11.23;;;5.70;;
75272;SDS011;63869;52.344;16.928;2023-12-20T08:51:29;13.30;;;6.30;;
75272;SDS011;63869;52.344;16.928;2023-12-20T08:53:54;8.15;;;4.40;;
75272;SDS011;63869;52.344;16.928;2023-12-20T08:56:20;10.25;;;5.03;;
75272;SDS011;63869;52.344;16.928;2023-12-20T08:58:45;8.65;;;5.03;;
75272;SDS011;63869;52.344;16.928;2023-12-20T09:01:11;9.13;;;4.93;;
75272;SDS011;63869;52.344;16.928;2023-12-20T09:03:37;11.25;;;5.35;;
75272;SDS011;63869;52.344;16.928;2023-12-20T09:06:03;7.93;;;4.78;;
75272;SDS011;63869;52.344;16.928;2023-12-20T09:08:30;7.85;;;4.90;;
75272;SDS011;63869;52.344;16.928;2023-12-20T09:10:55;10.18;;;5.03;;
75272;SDS011;63869;52.344;16.928;2023-12-20T09:13:21;7.95;;;4.32;;
75272;SDS011;63869;52.344;16.928;2023-12-20T09:15:47;12.07;;;4.90;;
75272;SDS011;63869;52.344;16.928;2023-12-20T09:18:12;8.48;;;4.20;;
75272;SDS011;63869;52.344;16.928;2023-12-20T09:20:38;8.18;;;4.63;;
75272;SDS011;63869;52.344;16.928;2023-12-20T09:23:03;7.05;;;4.00;;
75272;SDS011;63869;52.344;16.928;2023-12-20T09:25:28;8.85;;;4.07;;
75272;SDS011;63869;52.344;16.928;2023-12-20T09:27:54;9.48;;;4.15;;
75272;SDS011;63869;52.344;16.928;2023-12-20T09:30:20;9.77;;;4.55;;
75272;SDS011;63869;52.344;16.928;2023-12-20T09:32:46;9.82;;;4.78;;
75272;SDS011;63869;52.344;16.928;2023-12-20T09:35:12;7.60;;;4.20;;
75272;SDS011;63869;52.344;16.928;2023-12-20T09:37:39;6.63;;;3.75;;
75272;SDS011;63869;52.344;16.928;2023-12-20T09:40:10;11.23;;;4.30;;
75272;SDS011;63869;52.344;16.928;2023-12-20T09:45:19;7.55;;;3.55;;
75272;SDS011;63869;52.344;16.928;2023-12-20T09:47:52;12.10;;;4.22;;
75272;SDS011;63869;52.344;16.928;2023-12-20T09:50:19;10.13;;;3.55;;
75272;SDS011;63869;52.344;16.928;2023-12-20T09:52:47;10.10;;;4.63;;
75272;SDS011;63869;52.344;16.928;2023-12-20T09:55:17;9.30;;;3.85;;
75272;SDS011;63869;52.344;16.928;2023-12-20T09:57:44;9.30;;;4.00;;
75272;SDS011;63869;52.344;16.928;2023-12-20T10:00:10;9.18;;;4.40;;
75272;SDS011;63869;52.344;16.928;2023-12-20T10:02:36;6.97;;;3.92;;
75272;SDS011;63869;52.344;16.928;2023-12-20T10:05:06;6.45;;;3.65;;
75272;SDS011;63869;52.344;16.928;2023-12-20T10:07:34;10.18;;;4.18;;
75272;SDS011;63869;52.344;16.928;2023-12-20T10:10:00;8.95;;;3.85;;
75272;SDS011;63869;52.344;16.928;2023-12-20T10:12:27;9.75;;;3.97;;
75272;SDS011;63869;52.344;16.928;2023-12-20T10:14:53;8.10;;;3.70;;
75272;SDS011;63869;52.344;16.928;2023-12-20T10:17:20;8.45;;;3.65;;
75272;SDS011;63869;52.344;16.928;2023-12-20T10:19:48;10.93;;;4.00;;
75272;SDS011;63869;52.344;16.928;2023-12-20T10:22:14;6.97;;;3.50;;
75272;SDS011;63869;52.344;16.928;2023-12-20T10:24:40;7.75;;;3.63;;
75272;SDS011;63869;52.344;16.928;2023-12-20T10:27:06;6.20;;;3.60;;
75272;SDS011;63869;52.344;16.928;2023-12-20T10:29:33;9.48;;;4.72;;
75272;SDS011;63869;52.344;16.928;2023-12-20T10:34:47;8.05;;;3.55;;
75272;SDS011;63869;52.344;16.928;2023-12-20T10:37:13;11.23;;;3.90;;
75272;SDS011;63869;52.344;16.928;2023-12-20T10:39:38;8.50;;;3.80;;
75272;SDS011;63869;52.344;16.928;2023-12-20T10:42:04;8.38;;;3.78;;
75272;SDS011;63869;52.344;16.928;2023-12-20T10:44:32;12.20;;;5.20;;
75272;SDS011;63869;52.344;16.928;2023-12-20T10:46:57;12.45;;;4.18;;
75272;SDS011;63869;52.344;16.928;2023-12-20T10:49:24;10.45;;;3.80;;
75272;SDS011;63869;52.344;16.928;2023-12-20T10:51:51;12.95;;;4.00;;
75272;SDS011;63869;52.344;16.928;2023-12-20T10:54:19;9.18;;;3.05;;
75272;SDS011;63869;52.344;16.928;2023-12-20T10:56:44;8.90;;;3.65;;
75272;SDS011;63869;52.344;16.928;2023-12-20T10:59:11;7.78;;;3.30;;
75272;SDS011;63869;52.344;16.928;2023-12-20T11:01:38;7.40;;;3.25;;
75272;SDS011;63869;52.344;16.928;2023-12-20T11:04:06;16.23;;;3.80;;
75272;SDS011;63869;52.344;16.928;2023-12-20T11:06:49;6.25;;;2.90;;
75272;SDS011;63869;52.344;16.928;2023-12-20T11:09:24;8.00;;;3.53;;
75272;SDS011;63869;52.344;16.928;2023-12-20T11:14:50;11.18;;;3.78;;
75272;SDS011;63869;52.344;16.928;2023-12-20T11:17:18;6.90;;;3.40;;
75272;SDS011;63869;52.344;16.928;2023-12-20T11:22:22;8.68;;;3.55;;
75272;SDS011;63869;52.344;16.928;2023-12-20T11:24:54;7.25;;;2.70;;
75272;SDS011;63869;52.344;16.928;2023-12-20T11:27:27;6.07;;;3.22;;
75272;SDS011;63869;52.344;16.928;2023-12-20T11:29:54;6.88;;;3.35;;
75272;SDS011;63869;52.344;16.928;2023-12-20T11:34:57;5.07;;;3.00;;
75272;SDS011;63869;52.344;16.928;2023-12-20T11:40:02;8.88;;;3.17;;
75272;SDS011;63869;52.344;16.928;2023-12-20T11:42:44;6.35;;;3.58;;
75272;SDS011;63869;52.344;16.928;2023-12-20T11:47:42;7.82;;;3.58;;
75272;SDS011;63869;52.344;16.928;2023-12-20T11:50:09;8.45;;;3.67;;
75272;SDS011;63869;52.344;16.928;2023-12-20T11:52:35;9.73;;;3.92;;
75272;SDS011;63869;52.344;16.928;2023-12-20T11:55:00;9.43;;;3.85;;
75272;SDS011;63869;52.344;16.928;2023-12-20T11:57:26;5.97;;;3.13;;
75272;SDS011;63869;52.344;16.928;2023-12-20T11:59:51;8.63;;;3.55;;
75272;SDS011;63869;52.344;16.928;2023-12-20T12:02:17;8.27;;;3.80;;
75272;SDS011;63869;52.344;16.928;2023-12-20T12:04:42;12.75;;;3.40;;
75272;SDS011;63869;52.344;16.928;2023-12-20T12:07:07;9.65;;;4.57;;
75272;SDS011;63869;52.344;16.928;2023-12-20T12:09:33;7.55;;;3.83;;
75272;SDS011;63869;52.344;16.928;2023-12-20T12:12:00;6.55;;;3.55;;
75272;SDS011;63869;52.344;16.928;2023-12-20T12:14:26;3.75;;;2.20;;
75272;SDS011;63869;52.344;16.928;2023-12-20T12:16:52;5.05;;;2.83;;
75272;SDS011;63869;52.344;16.928;2023-12-20T12:19:25;4.90;;;2.80;;
75272;SDS011;63869;52.344;16.928;2023-12-20T12:22:03;6.88;;;3.35;;
75272;SDS011;63869;52.344;16.928;2023-12-20T12:24:44;5.18;;;3.20;;
75272;SDS011;63869;52.344;16.928;2023-12-20T12:27:14;7.07;;;3.17;;
75272;SDS011;63869;52.344;16.928;2023-12-20T12:29:41;7.03;;;3.28;;
75272;SDS011;63869;52.344;16.928;2023-12-20T12:32:26;6.90;;;2.67;;
75272;SDS011;63869;52.344;16.928;2023-12-20T12:34:52;6.95;;;3.53;;
75272;SDS011;63869;52.344;16.928;2023-12-20T12:37:18;7.38;;;2.70;;
75272;SDS011;63869;52.344;16.928;2023-12-20T12:39:43;7.45;;;3.47;;
75272;SDS011;63869;52.344;16.928;2023-12-20T12:42:09;9.27;;;3.35;;
75272;SDS011;63869;52.344;16.928;2023-12-20T12:44:34;7.97;;;3.28;;
75272;SDS011;63869;52.344;16.928;2023-12-20T12:47:01;8.95;;;4.00;;
75272;SDS011;63869;52.344;16.928;2023-12-20T12:49:28;8.02;;;3.92;;
75272;SDS011;63869;52.344;16.928;2023-12-20T12:51:56;9.90;;;3.38;;
75272;SDS011;63869;52.344;16.928;2023-12-20T12:54:23;8.85;;;4.70;;
75272;SDS011;63869;52.344;16.928;2023-12-20T12:56:49;8.63;;;4.40;;
75272;SDS011;63869;52.344;16.928;2023-12-20T12:59:15;8.25;;;4.43;;
75272;SDS011;63869;52.344;16.928;2023-12-20T13:01:41;12.93;;;3.88;;
75272;SDS011;63869;52.344;16.928;2023-12-20T13:04:07;8.38;;;3.40;;
75272;SDS011;63869;52.344;16.928;2023-12-20T13:06:36;6.78;;;3.35;;
75272;SDS011;63869;52.344;16.928;2023-12-20T13:09:03;6.70;;;3.88;;
75272;SDS011;63869;52.344;16.928;2023-12-20T13:11:29;11.50;;;3.80;;
75272;SDS011;63869;52.344;16.928;2023-12-20T13:13:56;8.20;;;3.55;;
75272;SDS011;63869;52.344;16.928;2023-12-20T13:16:22;9.30;;;4.03;;
75272;SDS011;63869;52.344;16.928;2023-12-20T13:18:49;9.00;;;4.32;;
75272;SDS011;63869;52.344;16.928;2023-12-20T13:21:16;8.45;;;3.63;;
75272;SDS011;63869;52.344;16.928;2023-12-20T13:23:42;5.53;;;3.20;;
75272;SDS011;63869;52.344;16.928;2023-12-20T13:26:10;9.90;;;4.32;;
75272;SDS011;63869;52.344;16.928;2023-12-20T13:28:35;8.57;;;3.53;;
75272;SDS011;63869;52.344;16.928;2023-12-20T13:31:01;10.85;;;4.20;;
75272;SDS011;63869;52.344;16.928;2023-12-20T13:33:26;11.10;;;4.40;;
75272;SDS011;63869;52.344;16.928;2023-12-20T13:35:52;8.35;;;4.70;;
75272;SDS011;63869;52.344;16.928;2023-12-20T13:38:17;10.77;;;3.65;;
75272;SDS011;63869;52.344;16.928;2023-12-20T13:40:43;7.72;;;3.78;;
75272;SDS011;63869;52.344;16.928;2023-12-20T13:43:08;10.85;;;4.03;;
75272;SDS011;63869;52.344;16.928;2023-12-20T13:45:36;7.32;;;3.65;;
75272;SDS011;63869;52.344;16.928;2023-12-20T13:48:02;9.73;;;3.05;;
75272;SDS011;63869;52.344;16.928;2023-12-20T13:50:27;9.70;;;3.60;;
75272;SDS011;63869;52.344;16.928;2023-12-20T13:52:54;8.15;;;3.22;;
75272;SDS011;63869;52.344;16.928;2023-12-20T13:55:19;7.43;;;3.67;;
75272;SDS011;63869;52.344;16.928;2023-12-20T13:57:47;10.13;;;4.10;;
75272;SDS011;63869;52.344;16.928;2023-12-20T14:00:15;11.05;;;4.50;;
75272;SDS011;63869;52.344;16.928;2023-12-20T14:02:41;12.25;;;3.78;;
75272;SDS011;63869;52.344;16.928;2023-12-20T14:05:07;9.23;;;3.78;;
75272;SDS011;63869;52.344;16.928;2023-12-20T14:07:34;11.10;;;3.92;;
75272;SDS011;63869;52.344;16.928;2023-12-20T14:10:22;10.00;;;3.78;;
75272;SDS011;63869;52.344;16.928;2023-12-20T14:12:48;11.45;;;3.58;;
75272;SDS011;63869;52.344;16.928;2023-12-20T14:15:13;7.65;;;4.00;;
75272;SDS011;63869;52.344;16.928;2023-12-20T14:17:40;9.93;;;3.17;;
75272;SDS011;63869;52.344;16.928;2023-12-20T14:20:09;8.20;;;3.17;;
75272;SDS011;63869;52.344;16.928;2023-12-20T14:22:34;12.27;;;4.10;;
75272;SDS011;63869;52.344;16.928;2023-12-20T14:25:00;9.40;;;3.50;;
75272;SDS011;63869;52.344;16.928;2023-12-20T14:27:26;9.52;;;3.60;;
75272;SDS011;63869;52.344;16.928;2023-12-20T14:29:55;12.95;;;4.32;;
75272;SDS011;63869;52.344;16.928;2023-12-20T14:32:22;10.75;;;3.55;;
75272;SDS011;63869;52.344;16.928;2023-12-20T14:34:48;14.55;;;4.90;;
75272;SDS011;63869;52.344;16.928;2023-12-20T14:37:15;11.77;;;4.38;;
75272;SDS011;63869;52.344;16.928;2023-12-20T14:39:42;9.73;;;3.67;;
75272;SDS011;63869;52.344;16.928;2023-12-20T14:42:07;10.05;;;3.42;;
75272;SDS011;63869;52.344;16.928;2023-12-20T14:44:39;10.93;;;4.63;;